createdAt,value
2022-08-23T00:02:02.608Z,3.97
2022-08-23T00:05:03.667Z,3.20
2022-08-23T00:07:29.807Z,2.30
2022-08-23T00:09:56.472Z,3.08
2022-08-23T00:12:25.420Z,5.60
2022-08-23T00:14:54.095Z,4.20
2022-08-23T00:17:33.661Z,2.88
2022-08-23T00:20:03.963Z,3.75
2022-08-23T00:22:30.679Z,4.63
2022-08-23T00:24:57.352Z,6.60
2022-08-23T00:27:24.249Z,4.13
2022-08-23T00:29:53.351Z,2.95
2022-08-23T00:32:22.042Z,2.28
2022-08-23T00:34:49.346Z,3.88
2022-08-23T00:37:16.646Z,4.68
2022-08-23T00:39:43.736Z,3.03
2022-08-23T00:42:42.087Z,3.60
2022-08-23T00:45:13.515Z,3.95
2022-08-23T00:47:40.908Z,6.78
2022-08-23T00:50:29.847Z,2.70
2022-08-23T00:53:01.573Z,2.85
2022-08-23T00:55:29.705Z,3.22
2022-08-23T00:57:57.294Z,5.68
2022-08-23T01:00:27.791Z,3.30
2022-08-23T01:02:55.027Z,3.22
2022-08-23T01:05:28.696Z,3.25
2022-08-23T01:07:59.223Z,3.42
2022-08-23T01:10:39.423Z,6.13
2022-08-23T01:13:15.188Z,5.70
2022-08-23T01:15:47.799Z,5.05
2022-08-23T01:18:17.834Z,6.35
2022-08-23T01:21:10.408Z,5.18
2022-08-23T01:23:53.573Z,4.55
2022-08-23T01:26:22.707Z,5.20
2022-08-23T01:28:51.204Z,5.38
2022-08-23T01:31:20.232Z,4.30
2022-08-23T01:33:58.059Z,5.05
2022-08-23T01:36:25.207Z,4.65
2022-08-23T01:38:52.596Z,4.47
2022-08-23T01:41:20.358Z,3.95
2022-08-23T01:43:47.421Z,5.55
2022-08-23T01:46:20.407Z,4.65
2022-08-23T01:48:49.268Z,4.43
2022-08-23T01:51:18.843Z,4.40
2022-08-23T01:53:54.605Z,3.95
2022-08-23T01:56:39.241Z,8.55
2022-08-23T01:59:11.792Z,5.10
2022-08-23T02:01:52.266Z,4.93
2022-08-23T02:04:20.267Z,7.45
2022-08-23T02:06:50.597Z,5.38
2022-08-23T02:09:25.517Z,4.45
2022-08-23T02:11:56.680Z,3.78
2022-08-23T02:17:20.855Z,4.32
2022-08-23T02:19:50.559Z,6.05
2022-08-23T02:22:17.730Z,7.70
2022-08-23T02:24:46.913Z,5.30
2022-08-23T02:27:15.839Z,4.78
2022-08-23T02:29:45.326Z,5.05
2022-08-23T02:32:18.040Z,6.25
2022-08-23T02:34:51.127Z,5.38
2022-08-23T02:37:35.190Z,4.80
2022-08-23T02:40:02.326Z,3.60
2022-08-23T02:42:29.421Z,4.43
2022-08-23T02:44:56.283Z,4.63
2022-08-23T02:47:22.969Z,4.53
2022-08-23T02:50:09.678Z,4.70
2022-08-23T02:52:36.429Z,5.25
2022-08-23T02:55:04.437Z,4.72
2022-08-23T02:57:31.595Z,6.50
2022-08-23T03:00:00.494Z,4.00
2022-08-23T03:02:27.926Z,3.55
2022-08-23T03:04:54.681Z,7.38
2022-08-23T03:07:21.347Z,7.00
2022-08-23T03:09:47.983Z,5.90
2022-08-23T03:12:14.775Z,6.45
2022-08-23T03:14:47.560Z,4.05
2022-08-23T03:17:14.215Z,4.85
2022-08-23T03:19:40.902Z,5.10
2022-08-23T03:22:08.061Z,7.35
2022-08-23T03:24:34.698Z,4.47
2022-08-23T03:27:01.739Z,4.88
2022-08-23T03:29:28.831Z,5.55
2022-08-23T03:32:04.280Z,5.50
2022-08-23T03:34:35.222Z,5.15
2022-08-23T03:37:02.202Z,4.97
2022-08-23T03:39:28.933Z,5.63
2022-08-23T03:41:57.878Z,4.72
2022-08-23T03:44:25.324Z,4.78
2022-08-23T03:46:52.000Z,5.78
2022-08-23T03:49:18.600Z,6.05
2022-08-23T03:51:51.551Z,6.97
2022-08-23T03:54:18.395Z,8.43
2022-08-23T03:57:08.784Z,8.77
2022-08-23T03:59:40.162Z,7.65
2022-08-23T04:02:10.310Z,5.07
2022-08-23T04:04:36.993Z,5.43
2022-08-23T04:07:27.603Z,7.10
2022-08-23T04:09:57.491Z,5.30
2022-08-23T04:12:27.249Z,7.10
2022-08-23T04:14:54.088Z,5.50
2022-08-23T04:17:22.114Z,4.88
2022-08-23T04:19:49.588Z,4.93
2022-08-23T04:22:18.760Z,5.00
2022-08-23T04:24:46.513Z,6.60
2022-08-23T04:27:13.487Z,7.50
2022-08-23T04:29:40.831Z,5.68
2022-08-23T04:32:11.622Z,5.15
2022-08-23T04:34:39.776Z,6.47
2022-08-23T04:37:09.414Z,6.28
2022-08-23T04:39:38.118Z,5.13
2022-08-23T04:42:14.280Z,6.78
2022-08-23T04:44:41.617Z,7.47
2022-08-23T04:47:08.357Z,5.70
2022-08-23T04:49:35.447Z,6.55
2022-08-23T04:52:05.584Z,5.90
2022-08-23T04:54:32.539Z,6.20
2022-08-23T04:57:28.465Z,5.53
2022-08-23T04:59:56.070Z,6.82
2022-08-23T05:02:22.948Z,8.48
2022-08-23T05:04:50.881Z,7.10
2022-08-23T05:07:17.520Z,4.80
2022-08-23T05:09:44.282Z,5.55
2022-08-23T05:12:11.984Z,5.15
2022-08-23T05:14:38.948Z,5.50
2022-08-23T05:17:05.635Z,4.60
2022-08-23T05:19:35.711Z,5.75
2022-08-23T05:22:06.246Z,5.97
2022-08-23T05:24:54.786Z,4.95
2022-08-23T05:27:21.699Z,4.20
2022-08-23T05:29:48.374Z,6.25
2022-08-23T05:32:15.650Z,5.28
2022-08-23T05:34:42.348Z,5.38
2022-08-23T05:37:10.556Z,5.03
2022-08-23T05:39:39.971Z,5.68
2022-08-23T05:42:11.574Z,4.60
2022-08-23T05:44:38.536Z,6.10
2022-08-23T05:47:11.135Z,4.00
2022-08-23T05:49:46.036Z,4.28
2022-08-23T05:52:13.831Z,7.22
2022-08-23T05:54:42.721Z,4.15
2022-08-23T05:57:24.500Z,7.43
2022-08-23T05:59:51.229Z,4.78
2022-08-23T06:02:17.810Z,5.70
2022-08-23T06:04:44.758Z,5.72
2022-08-23T06:07:11.410Z,5.45
2022-08-23T06:09:39.113Z,5.03
2022-08-23T06:12:06.033Z,4.03
2022-08-23T06:14:32.772Z,6.07
2022-08-23T06:16:59.679Z,4.28
2022-08-23T06:19:27.825Z,5.88
2022-08-23T06:22:17.920Z,6.68
2022-08-23T06:24:44.773Z,5.93
2022-08-23T06:27:28.126Z,4.05
2022-08-23T06:29:54.916Z,5.75
2022-08-23T06:32:27.150Z,5.43
2022-08-23T06:35:29.966Z,4.28
2022-08-23T06:38:07.423Z,5.63
2022-08-23T06:41:04.300Z,6.03
2022-08-23T06:43:40.914Z,4.35
2022-08-23T06:46:25.321Z,5.25
2022-08-23T06:48:56.350Z,3.50
2022-08-23T06:51:36.319Z,3.92
2022-08-23T06:54:17.948Z,4.55
2022-08-23T06:56:49.703Z,4.90
2022-08-23T06:59:22.282Z,4.13
2022-08-23T07:01:55.422Z,5.90
2022-08-23T07:04:35.695Z,6.68
2022-08-23T07:07:21.351Z,3.00
2022-08-23T07:09:50.217Z,4.03
2022-08-23T07:12:17.854Z,3.58
2022-08-23T07:14:44.727Z,3.95
2022-08-23T07:17:14.126Z,3.40
2022-08-23T07:19:41.251Z,3.88
2022-08-23T07:22:08.051Z,4.97
2022-08-23T07:24:34.979Z,5.03
2022-08-23T07:27:05.001Z,2.67
2022-08-23T07:29:32.661Z,3.08
2022-08-23T07:31:59.436Z,4.07
2022-08-23T07:34:26.368Z,2.92
2022-08-23T07:36:54.179Z,5.18
2022-08-23T07:39:22.576Z,4.68
2022-08-23T07:41:50.538Z,3.90
2022-08-23T07:44:18.942Z,3.22
2022-08-23T07:46:50.143Z,4.40
2022-08-23T07:49:17.559Z,4.20
2022-08-23T07:51:48.895Z,3.20
2022-08-23T07:54:17.784Z,3.08
2022-08-23T07:56:58.787Z,1.63
2022-08-23T07:59:51.992Z,2.17
2022-08-23T08:02:18.736Z,1.75
2022-08-23T08:04:45.487Z,2.92
2022-08-23T08:07:21.138Z,2.08
2022-08-23T08:09:55.960Z,3.25
2022-08-23T08:12:24.313Z,2.00
2022-08-23T08:14:53.974Z,2.40
2022-08-23T08:17:29.995Z,1.85
2022-08-23T08:20:11.620Z,4.22
2022-08-23T08:22:38.362Z,1.73
2022-08-23T08:25:09.639Z,4.20
2022-08-23T08:27:37.124Z,3.15
2022-08-23T08:30:05.675Z,2.88
2022-08-23T08:32:32.994Z,2.40
2022-08-23T08:34:59.698Z,1.92
2022-08-23T08:37:27.335Z,2.80
2022-08-23T08:39:54.818Z,1.70
2022-08-23T08:42:33.142Z,3.75
2022-08-23T08:45:19.063Z,1.88
2022-08-23T08:47:57.793Z,3.17
2022-08-23T08:50:36.400Z,2.03
2022-08-23T08:53:12.447Z,4.18
2022-08-23T08:56:32.159Z,3.85
2022-08-23T08:59:23.657Z,1.65
2022-08-23T09:01:51.270Z,2.40
2022-08-23T09:04:25.533Z,2.75
2022-08-23T09:07:19.320Z,1.80
2022-08-23T09:10:07.412Z,1.30
2022-08-23T09:12:37.048Z,3.90
2022-08-23T09:15:21.613Z,2.00
2022-08-23T09:17:51.992Z,0.85
2022-08-23T09:20:20.491Z,1.73
2022-08-23T09:22:56.755Z,0.88
2022-08-23T09:25:28.643Z,0.98
2022-08-23T09:28:07.138Z,3.28
2022-08-23T09:30:49.856Z,1.67
2022-08-23T09:33:26.506Z,2.28
2022-08-23T09:36:10.556Z,1.58
2022-08-23T09:38:39.607Z,1.52
2022-08-23T09:41:19.950Z,2.10
2022-08-23T09:43:50.629Z,0.70
2022-08-23T09:46:27.887Z,1.48
2022-08-23T09:48:55.179Z,1.83
2022-08-23T09:51:26.983Z,3.28
2022-08-23T09:54:34.194Z,4.05
2022-08-23T09:57:05.798Z,1.23
2022-08-23T09:59:42.933Z,2.15
2022-08-23T10:02:34.259Z,1.77
2022-08-23T10:05:36.655Z,0.60
2022-08-23T10:08:08.789Z,3.50
2022-08-23T10:10:50.865Z,1.75
2022-08-23T10:13:22.646Z,0.60
2022-08-23T10:16:02.344Z,0.85
2022-08-23T10:18:55.133Z,2.42
2022-08-23T10:21:29.894Z,1.02
2022-08-23T10:24:11.432Z,3.15
2022-08-23T10:26:59.445Z,1.67
2022-08-23T10:29:38.094Z,1.05
2022-08-23T10:32:24.191Z,0.98
2022-08-23T10:35:00.751Z,1.52
2022-08-23T10:37:30.445Z,3.33
2022-08-23T10:40:20.360Z,4.10
2022-08-23T10:43:22.499Z,1.15
2022-08-23T10:45:50.242Z,1.15
2022-08-23T10:48:30.788Z,3.15
2022-08-23T10:51:05.593Z,0.52
2022-08-23T10:53:43.578Z,1.52
2022-08-23T10:56:10.339Z,1.90
2022-08-23T10:58:47.520Z,1.35
2022-08-23T11:01:21.381Z,2.33
2022-08-23T11:04:04.894Z,1.17
2022-08-23T11:06:49.367Z,1.13
2022-08-23T11:09:19.177Z,1.95
2022-08-23T11:11:49.788Z,2.40
2022-08-23T11:14:42.676Z,3.75
2022-08-23T11:17:23.545Z,1.75
2022-08-23T11:19:56.679Z,1.75
2022-08-23T11:22:54.276Z,3.38
2022-08-23T11:25:21.040Z,1.55
2022-08-23T11:27:48.389Z,1.70
2022-08-23T11:30:31.654Z,1.13
2022-08-23T11:33:17.894Z,1.05
2022-08-23T11:35:49.891Z,1.52
2022-08-23T11:38:37.980Z,1.25
2022-08-23T11:41:19.919Z,2.00
2022-08-23T11:43:48.494Z,1.95
2022-08-23T11:46:27.450Z,1.92
2022-08-23T11:49:12.267Z,2.47
2022-08-23T11:51:59.627Z,1.88
2022-08-23T11:54:50.568Z,4.68
2022-08-23T11:57:34.675Z,1.90
2022-08-23T12:00:29.199Z,1.67
2022-08-23T12:03:24.370Z,2.20
2022-08-23T12:06:14.324Z,2.05
2022-08-23T12:08:58.928Z,8.13
2022-08-23T12:11:25.943Z,1.88
2022-08-23T12:13:57.797Z,4.57
2022-08-23T12:16:28.893Z,2.88
2022-08-23T12:19:09.777Z,4.53
2022-08-23T12:21:46.279Z,4.55
2022-08-23T12:24:40.297Z,2.47
2022-08-23T12:27:38.235Z,1.25
2022-08-23T12:30:10.556Z,2.85
2022-08-23T12:33:25.259Z,2.30
2022-08-23T12:36:30.112Z,2.33
2022-08-23T12:39:36.404Z,1.77
2022-08-23T12:42:25.819Z,4.22
2022-08-23T12:45:13.175Z,3.45
2022-08-23T12:47:43.114Z,1.98
2022-08-23T12:50:16.063Z,1.38
2022-08-23T12:52:42.817Z,5.55
2022-08-23T12:55:18.809Z,6.28
2022-08-23T12:57:55.575Z,2.15
2022-08-23T13:00:31.195Z,2.35
2022-08-23T13:03:03.941Z,4.60
2022-08-23T13:06:02.011Z,1.85
2022-08-23T13:08:41.166Z,2.25
2022-08-23T13:11:09.650Z,4.32
2022-08-23T13:13:42.894Z,1.80
2022-08-23T13:16:27.605Z,1.67
2022-08-23T13:18:55.751Z,1.95
2022-08-23T13:21:22.270Z,4.82
2022-08-23T13:24:00.853Z,2.13
2022-08-23T13:26:45.006Z,1.77
2022-08-23T13:29:17.876Z,2.35
2022-08-23T13:32:03.297Z,2.35
2022-08-23T13:34:48.822Z,0.90
2022-08-23T13:37:26.338Z,2.25
2022-08-23T13:40:00.033Z,2.00
2022-08-23T13:42:32.368Z,1.83
2022-08-23T13:45:07.733Z,1.98
2022-08-23T13:47:37.152Z,1.75
2022-08-23T13:50:11.700Z,1.02
2022-08-23T13:52:56.724Z,0.70
2022-08-23T13:55:27.906Z,1.75
2022-08-23T13:57:56.891Z,2.72
2022-08-23T14:00:23.882Z,1.27
2022-08-23T14:02:50.831Z,0.80
2022-08-23T14:05:20.630Z,1.95
2022-08-23T14:07:48.929Z,3.63
2022-08-23T14:10:15.747Z,2.75
2022-08-23T14:12:47.196Z,3.00
2022-08-23T14:15:14.638Z,5.47
2022-08-23T14:17:47.001Z,1.73
2022-08-23T14:23:08.725Z,1.58
2022-08-23T14:25:39.060Z,1.33
2022-08-23T14:28:05.704Z,3.17
2022-08-23T14:30:34.630Z,1.33
2022-08-23T14:33:01.904Z,1.08
2022-08-23T14:35:28.853Z,2.40
2022-08-23T14:38:04.549Z,1.90
2022-08-23T14:40:31.997Z,1.05
2022-08-23T14:42:58.851Z,2.50
2022-08-23T14:45:25.748Z,1.55
2022-08-23T14:47:52.390Z,6.40
2022-08-23T14:50:19.073Z,7.57
2022-08-23T14:52:46.799Z,5.13
2022-08-23T14:55:14.752Z,1.45
2022-08-23T14:57:41.579Z,1.35
2022-08-23T15:00:09.508Z,1.95
2022-08-23T15:02:36.209Z,2.40
2022-08-23T15:05:03.537Z,2.92
2022-08-23T15:07:30.143Z,4.70
2022-08-23T15:09:56.907Z,1.15
2022-08-23T15:15:15.138Z,1.35
2022-08-23T15:17:51.939Z,3.00
2022-08-23T15:20:21.143Z,3.70
2022-08-23T15:22:55.811Z,2.80
2022-08-23T15:25:25.320Z,0.88
2022-08-23T15:27:52.512Z,2.15
2022-08-23T15:30:19.532Z,1.55
2022-08-23T15:32:56.655Z,1.23
2022-08-23T15:35:28.282Z,3.53
2022-08-23T15:37:59.085Z,2.00
2022-08-23T15:40:28.612Z,1.80
2022-08-23T15:42:58.805Z,2.25
2022-08-23T15:45:25.782Z,1.10
2022-08-23T15:47:57.672Z,1.17
2022-08-23T15:50:34.527Z,1.55
2022-08-23T15:53:01.405Z,2.03
2022-08-23T15:55:31.136Z,1.90
2022-08-23T15:58:03.086Z,1.00
2022-08-23T16:00:29.803Z,4.43
2022-08-23T16:03:20.564Z,2.30
2022-08-23T16:05:50.305Z,2.50
2022-08-23T16:08:29.566Z,2.60
2022-08-23T16:11:05.928Z,1.60
2022-08-23T16:13:32.556Z,2.47
2022-08-23T16:15:59.148Z,2.20
2022-08-23T16:18:28.437Z,2.30
2022-08-23T16:20:55.040Z,1.27
2022-08-23T16:23:34.757Z,1.83
2022-08-23T16:26:10.150Z,1.70
2022-08-23T16:28:54.361Z,1.70
2022-08-23T16:31:38.262Z,2.00
2022-08-23T16:34:19.860Z,4.20
2022-08-23T16:37:06.012Z,1.65
2022-08-23T16:39:34.222Z,3.47
2022-08-23T16:42:04.829Z,1.38
2022-08-23T16:44:33.158Z,3.90
2022-08-23T16:47:08.103Z,1.75
2022-08-23T16:49:35.244Z,9.02
2022-08-23T16:52:02.245Z,5.45
2022-08-23T16:54:29.129Z,3.53
2022-08-23T16:56:56.058Z,4.20
2022-08-23T16:59:22.894Z,4.82
2022-08-23T17:01:59.818Z,1.13
2022-08-23T17:04:30.323Z,3.88
2022-08-23T17:06:59.507Z,3.58
2022-08-23T17:09:28.295Z,2.20
2022-08-23T17:11:55.655Z,3.95
2022-08-23T17:14:22.211Z,1.70
2022-08-23T17:16:49.092Z,1.63
2022-08-23T17:19:15.839Z,5.07
2022-08-23T17:21:43.136Z,3.22
2022-08-23T17:24:09.897Z,2.55
2022-08-23T17:26:36.762Z,1.52
2022-08-23T17:29:06.295Z,2.38
2022-08-23T17:31:33.368Z,2.05
2022-08-23T17:34:00.405Z,1.35
2022-08-23T17:36:41.340Z,2.80
2022-08-23T17:39:11.562Z,2.75
2022-08-23T17:41:44.962Z,2.78
2022-08-23T17:44:12.892Z,2.03
2022-08-23T17:46:47.541Z,1.95
2022-08-23T17:49:16.382Z,3.35
2022-08-23T17:51:46.361Z,1.58
2022-08-23T17:54:23.752Z,4.05
2022-08-23T17:56:51.492Z,2.50
2022-08-23T17:59:22.346Z,1.40
2022-08-23T18:01:49.423Z,3.08
2022-08-23T18:04:16.212Z,1.60
2022-08-23T18:06:43.104Z,2.30
2022-08-23T18:09:10.527Z,1.52
2022-08-23T18:11:37.844Z,3.15
2022-08-23T18:14:05.394Z,5.40
2022-08-23T18:16:35.646Z,2.05
2022-08-23T18:19:04.907Z,2.53
2022-08-23T18:22:02.186Z,1.88
2022-08-23T18:24:31.889Z,2.28
2022-08-23T18:26:59.013Z,1.27
2022-08-23T18:29:25.975Z,1.38
2022-08-23T18:31:54.729Z,2.67
2022-08-23T18:34:22.978Z,2.08
2022-08-23T18:36:49.960Z,2.58
2022-08-23T18:39:17.282Z,2.00
2022-08-23T18:42:00.370Z,2.80
2022-08-23T18:44:27.059Z,2.25
2022-08-23T18:46:53.736Z,2.15
2022-08-23T18:49:20.372Z,1.67
2022-08-23T18:51:47.015Z,1.45
2022-08-23T18:54:13.687Z,3.60
2022-08-23T18:56:40.450Z,3.25
2022-08-23T18:59:07.105Z,1.83
2022-08-23T19:01:37.312Z,3.53
2022-08-23T19:04:06.308Z,1.58
2022-08-23T19:06:33.523Z,3.75
2022-08-23T19:09:00.256Z,3.50
2022-08-23T19:11:29.798Z,1.83
2022-08-23T19:13:58.106Z,1.30
2022-08-23T19:16:29.222Z,3.13
2022-08-23T19:18:59.436Z,3.13
2022-08-23T19:21:26.866Z,2.05
2022-08-23T19:23:55.284Z,2.15
2022-08-23T19:26:27.753Z,1.42
2022-08-23T19:28:54.582Z,2.15
2022-08-23T19:31:21.527Z,2.20
2022-08-23T19:33:48.522Z,2.08
2022-08-23T19:36:29.615Z,1.23
2022-08-23T19:39:02.302Z,2.72
2022-08-23T19:41:31.639Z,1.48
2022-08-23T19:44:00.205Z,2.03
2022-08-23T19:46:34.635Z,1.60
2022-08-23T19:49:01.451Z,2.25
2022-08-23T19:51:28.206Z,2.80
2022-08-23T19:53:55.385Z,2.70
2022-08-23T19:56:22.158Z,2.50
2022-08-23T19:58:49.086Z,3.25
2022-08-23T20:01:15.915Z,2.50
2022-08-23T20:03:42.736Z,3.75
2022-08-23T20:06:10.408Z,3.67
2022-08-23T20:08:39.216Z,3.00
2022-08-23T20:11:06.550Z,3.95
2022-08-23T20:13:33.394Z,5.05
2022-08-23T20:16:00.067Z,3.80
2022-08-23T20:18:27.108Z,3.40
2022-08-23T20:20:53.675Z,4.05
2022-08-23T20:23:20.663Z,2.35
2022-08-23T20:25:47.243Z,1.83
2022-08-23T20:28:13.991Z,1.98
2022-08-23T20:30:40.602Z,3.78
2022-08-23T20:33:08.098Z,3.10
2022-08-23T20:35:34.746Z,4.45
2022-08-23T20:38:01.609Z,2.10
2022-08-23T20:40:28.380Z,2.65
2022-08-23T20:42:55.370Z,6.07
2022-08-23T20:45:22.303Z,2.97
2022-08-23T20:47:48.920Z,4.57
2022-08-23T20:50:15.680Z,4.82
2022-08-23T20:52:42.563Z,5.97
2022-08-23T20:55:10.936Z,2.55
2022-08-23T20:57:38.745Z,2.45
2022-08-23T21:00:07.000Z,3.97
2022-08-23T21:02:33.714Z,2.47
2022-08-23T21:05:00.418Z,3.13
2022-08-23T21:07:29.423Z,3.13
2022-08-23T21:09:57.588Z,3.60
2022-08-23T21:12:24.199Z,4.88
2022-08-23T21:14:50.853Z,3.35
2022-08-23T21:17:17.509Z,2.85
2022-08-23T21:19:45.357Z,3.63
2022-08-23T21:22:12.176Z,2.17
2022-08-23T21:24:38.739Z,3.35
2022-08-23T21:27:08.796Z,2.13
2022-08-23T21:29:37.331Z,2.22
2022-08-23T21:32:04.603Z,3.58
2022-08-23T21:34:31.343Z,2.65
2022-08-23T21:36:58.159Z,3.28
2022-08-23T21:39:24.809Z,2.53
2022-08-23T21:41:51.454Z,2.20
2022-08-23T21:44:20.345Z,5.82
2022-08-23T21:46:47.977Z,3.20
2022-08-23T21:49:15.306Z,3.35
2022-08-23T21:51:43.252Z,5.47
2022-08-23T21:54:12.768Z,4.88
2022-08-23T21:56:46.267Z,2.53
2022-08-23T21:59:23.253Z,3.63
2022-08-23T22:01:49.964Z,3.85
2022-08-23T22:04:19.228Z,4.32
2022-08-23T22:06:48.825Z,2.47
2022-08-23T22:09:20.092Z,3.83
2022-08-23T22:11:52.564Z,3.63
2022-08-23T22:14:23.081Z,2.42
2022-08-23T22:17:17.512Z,4.53
2022-08-23T22:19:51.650Z,2.38
2022-08-23T22:22:18.369Z,2.30
2022-08-23T22:24:52.393Z,3.95
2022-08-23T22:27:19.117Z,2.63
2022-08-23T22:29:46.628Z,3.17
2022-08-23T22:32:13.400Z,4.75
2022-08-23T22:34:40.546Z,3.10
2022-08-23T22:37:15.001Z,2.47
2022-08-23T22:39:45.112Z,2.47
2022-08-23T22:42:12.243Z,4.60
2022-08-23T22:44:39.032Z,2.65
2022-08-23T22:47:05.928Z,3.80
2022-08-23T22:49:32.742Z,6.03
2022-08-23T22:51:59.357Z,2.50
2022-08-23T22:54:27.206Z,3.08
2022-08-23T22:56:56.775Z,4.35
2022-08-23T22:59:27.597Z,3.72
2022-08-23T23:01:57.479Z,2.67
2022-08-23T23:04:25.478Z,4.53
2022-08-23T23:06:57.080Z,2.40
2022-08-23T23:09:26.665Z,2.78
2022-08-23T23:11:54.280Z,2.85
2022-08-23T23:14:24.206Z,4.60
2022-08-23T23:16:51.036Z,4.03
2022-08-23T23:19:17.959Z,3.22
2022-08-23T23:21:52.840Z,3.53
2022-08-23T23:24:31.216Z,3.38
2022-08-23T23:26:58.824Z,2.75
2022-08-23T23:29:28.390Z,2.58
2022-08-23T23:31:58.247Z,3.83
2022-08-23T23:34:28.503Z,2.90
2022-08-23T23:36:58.764Z,2.72
2022-08-23T23:39:26.882Z,3.78
2022-08-23T23:41:54.283Z,4.25
2022-08-23T23:44:29.951Z,3.65
2022-08-23T23:46:59.607Z,5.70
2022-08-23T23:49:32.562Z,3.45
2022-08-23T23:52:05.126Z,4.05
2022-08-23T23:54:32.528Z,2.70
2022-08-23T23:56:59.205Z,3.00
2022-08-23T23:59:26.170Z,4.28
